sensor_id;sensor_type;location;lat;lon;timestamp;temperature;humidity
63039;DHT22;49125;48.812;9.206;2022-07-22T00:02:07;19.40;95.90
63039;DHT22;49125;48.812;9.206;2022-07-22T00:04:32;19.40;95.90
63039;DHT22;49125;48.812;9.206;2022-07-22T00:06:58;19.40;95.90
63039;DHT22;49125;48.812;9.206;2022-07-22T00:09:23;19.30;96.00
63039;DHT22;49125;48.812;9.206;2022-07-22T00:11:49;19.30;96.00
63039;DHT22;49125;48.812;9.206;2022-07-22T00:14:15;19.30;96.00
63039;DHT22;49125;48.812;9.206;2022-07-22T00:16:40;19.30;96.00
63039;DHT22;49125;48.812;9.206;2022-07-22T00:19:06;19.30;96.00
63039;DHT22;49125;48.812;9.206;2022-07-22T00:21:32;19.20;96.20
63039;DHT22;49125;48.812;9.206;2022-07-22T00:23:57;19.20;96.50
63039;DHT22;49125;48.812;9.206;2022-07-22T00:26:23;19.20;96.50
63039;DHT22;49125;48.812;9.206;2022-07-22T00:28:48;19.10;96.50
63039;DHT22;49125;48.812;9.206;2022-07-22T00:31:14;19.20;96.60
63039;DHT22;49125;48.812;9.206;2022-07-22T00:33:40;19.10;96.60
63039;DHT22;49125;48.812;9.206;2022-07-22T00:36:05;19.10;96.60
63039;DHT22;49125;48.812;9.206;2022-07-22T00:38:32;19.10;96.60
63039;DHT22;49125;48.812;9.206;2022-07-22T00:40:57;19.10;96.50
63039;DHT22;49125;48.812;9.206;2022-07-22T00:43:23;19.10;96.60
63039;DHT22;49125;48.812;9.206;2022-07-22T00:45:49;19.00;96.70
63039;DHT22;49125;48.812;9.206;2022-07-22T00:48:14;19.00;96.70
63039;DHT22;49125;48.812;9.206;2022-07-22T00:50:40;19.00;96.70
63039;DHT22;49125;48.812;9.206;2022-07-22T00:53:06;18.90;96.80
63039;DHT22;49125;48.812;9.206;2022-07-22T00:55:33;18.90;96.70
63039;DHT22;49125;48.812;9.206;2022-07-22T00:57:59;18.90;96.70
63039;DHT22;49125;48.812;9.206;2022-07-22T01:00:25;18.90;96.80
63039;DHT22;49125;48.812;9.206;2022-07-22T01:02:50;18.90;96.90
63039;DHT22;49125;48.812;9.206;2022-07-22T01:05:16;18.80;97.00
63039;DHT22;49125;48.812;9.206;2022-07-22T01:07:43;18.80;97.30
63039;DHT22;49125;48.812;9.206;2022-07-22T01:10:09;18.80;97.20
63039;DHT22;49125;48.812;9.206;2022-07-22T01:12:34;18.80;97.20
63039;DHT22;49125;48.812;9.206;2022-07-22T01:15:00;18.80;97.20
63039;DHT22;49125;48.812;9.206;2022-07-22T01:17:26;18.70;97.40
63039;DHT22;49125;48.812;9.206;2022-07-22T01:19:51;18.70;97.20
63039;DHT22;49125;48.812;9.206;2022-07-22T01:22:17;18.70;97.40
63039;DHT22;49125;48.812;9.206;2022-07-22T01:24:43;18.70;97.50
63039;DHT22;49125;48.812;9.206;2022-07-22T01:27:08;18.60;97.50
63039;DHT22;49125;48.812;9.206;2022-07-22T01:29:34;18.60;97.50
63039;DHT22;49125;48.812;9.206;2022-07-22T01:32:00;18.60;97.60
63039;DHT22;49125;48.812;9.206;2022-07-22T01:34:28;18.50;97.60
63039;DHT22;49125;48.812;9.206;2022-07-22T01:36:53;18.50;97.60
63039;DHT22;49125;48.812;9.206;2022-07-22T01:39:19;18.50;97.70
63039;DHT22;49125;48.812;9.206;2022-07-22T01:41:45;18.50;97.80
63039;DHT22;49125;48.812;9.206;2022-07-22T01:44:10;18.50;97.70
63039;DHT22;49125;48.812;9.206;2022-07-22T01:46:36;18.40;97.70
63039;DHT22;49125;48.812;9.206;2022-07-22T01:49:02;18.40;98.00
63039;DHT22;49125;48.812;9.206;2022-07-22T01:51:27;18.40;98.00
63039;DHT22;49125;48.812;9.206;2022-07-22T01:53:53;18.40;97.90
63039;DHT22;49125;48.812;9.206;2022-07-22T01:56:18;18.40;98.30
63039;DHT22;49125;48.812;9.206;2022-07-22T01:58:44;18.30;98.40
63039;DHT22;49125;48.812;9.206;2022-07-22T02:01:10;18.40;98.40
63039;DHT22;49125;48.812;9.206;2022-07-22T02:03:36;18.40;98.50
63039;DHT22;49125;48.812;9.206;2022-07-22T02:06:02;18.40;98.60
63039;DHT22;49125;48.812;9.206;2022-07-22T02:08:28;18.30;99.00
63039;DHT22;49125;48.812;9.206;2022-07-22T02:10:53;18.30;99.00
63039;DHT22;49125;48.812;9.206;2022-07-22T02:13:19;18.30;99.30
63039;DHT22;49125;48.812;9.206;2022-07-22T02:15:44;18.30;99.30
63039;DHT22;49125;48.812;9.206;2022-07-22T02:18:14;18.30;99.30
63039;DHT22;49125;48.812;9.206;2022-07-22T02:20:40;18.20;99.50
63039;DHT22;49125;48.812;9.206;2022-07-22T02:23:06;18.20;99.40
63039;DHT22;49125;48.812;9.206;2022-07-22T02:25:32;18.20;99.30
63039;DHT22;49125;48.812;9.206;2022-07-22T02:27:58;18.20;99.30
63039;DHT22;49125;48.812;9.206;2022-07-22T02:30:24;18.20;99.70
63039;DHT22;49125;48.812;9.206;2022-07-22T02:32:49;18.10;99.70
63039;DHT22;49125;48.812;9.206;2022-07-22T02:35:15;18.10;99.60
63039;DHT22;49125;48.812;9.206;2022-07-22T02:37:40;18.10;99.70
63039;DHT22;49125;48.812;9.206;2022-07-22T02:40:07;18.10;99.80
63039;DHT22;49125;48.812;9.206;2022-07-22T02:42:33;18.00;99.80
63039;DHT22;49125;48.812;9.206;2022-07-22T02:44:59;18.00;99.80
63039;DHT22;49125;48.812;9.206;2022-07-22T02:47:25;18.00;99.90
63039;DHT22;49125;48.812;9.206;2022-07-22T02:49:51;18.00;99.90
63039;DHT22;49125;48.812;9.206;2022-07-22T02:52:17;18.00;99.90
63039;DHT22;49125;48.812;9.206;2022-07-22T02:54:43;17.90;99.90
63039;DHT22;49125;48.812;9.206;2022-07-22T02:57:11;17.90;99.90
63039;DHT22;49125;48.812;9.206;2022-07-22T02:59:37;17.90;99.90
63039;DHT22;49125;48.812;9.206;2022-07-22T03:02:03;17.90;99.90
63039;DHT22;49125;48.812;9.206;2022-07-22T03:04:28;17.90;99.90
63039;DHT22;49125;48.812;9.206;2022-07-22T03:06:54;17.80;99.90
63039;DHT22;49125;48.812;9.206;2022-07-22T03:09:20;17.80;99.90
63039;DHT22;49125;48.812;9.206;2022-07-22T03:11:46;17.80;99.90
63039;DHT22;49125;48.812;9.206;2022-07-22T03:14:11;17.80;99.90
63039;DHT22;49125;48.812;9.206;2022-07-22T03:16:37;17.80;99.90
63039;DHT22;49125;48.812;9.206;2022-07-22T03:19:03;17.70;99.90
63039;DHT22;49125;48.812;9.206;2022-07-22T03:21:29;17.60;99.90
63039;DHT22;49125;48.812;9.206;2022-07-22T03:23:54;17.60;99.90
63039;DHT22;49125;48.812;9.206;2022-07-22T03:26:21;17.60;99.90
63039;DHT22;49125;48.812;9.206;2022-07-22T03:28:46;17.60;99.90
63039;DHT22;49125;48.812;9.206;2022-07-22T03:31:12;17.60;99.90
63039;DHT22;49125;48.812;9.206;2022-07-22T03:33:38;17.60;99.90
63039;DHT22;49125;48.812;9.206;2022-07-22T03:36:04;17.60;99.90
63039;DHT22;49125;48.812;9.206;2022-07-22T03:38:31;17.70;99.90
63039;DHT22;49125;48.812;9.206;2022-07-22T03:40:56;17.70;99.90
63039;DHT22;49125;48.812;9.206;2022-07-22T03:43:22;17.70;99.90
63039;DHT22;49125;48.812;9.206;2022-07-22T03:45:48;17.80;99.90
63039;DHT22;49125;48.812;9.206;2022-07-22T03:48:13;17.80;99.90
63039;DHT22;49125;48.812;9.206;2022-07-22T03:50:39;17.80;99.90
63039;DHT22;49125;48.812;9.206;2022-07-22T03:53:04;17.80;99.80
63039;DHT22;49125;48.812;9.206;2022-07-22T03:55:30;17.90;99.90
63039;DHT22;49125;48.812;9.206;2022-07-22T03:57:55;17.90;99.90
63039;DHT22;49125;48.812;9.206;2022-07-22T04:00:21;17.90;99.90
63039;DHT22;49125;48.812;9.206;2022-07-22T04:02:47;17.90;99.90
63039;DHT22;49125;48.812;9.206;2022-07-22T04:05:12;17.90;99.90
63039;DHT22;49125;48.812;9.206;2022-07-22T04:07:38;18.00;99.90
63039;DHT22;49125;48.812;9.206;2022-07-22T04:10:03;18.00;99.90
63039;DHT22;49125;48.812;9.206;2022-07-22T04:12:38;18.00;99.90
63039;DHT22;49125;48.812;9.206;2022-07-22T04:15:05;18.00;99.90
63039;DHT22;49125;48.812;9.206;2022-07-22T04:17:31;17.90;99.90
63039;DHT22;49125;48.812;9.206;2022-07-22T04:19:56;17.90;99.90
63039;DHT22;49125;48.812;9.206;2022-07-22T04:22:29;17.80;99.90
63039;DHT22;49125;48.812;9.206;2022-07-22T04:24:55;17.90;99.90
63039;DHT22;49125;48.812;9.206;2022-07-22T04:27:20;17.90;99.90
63039;DHT22;49125;48.812;9.206;2022-07-22T04:29:46;18.00;99.90
63039;DHT22;49125;48.812;9.206;2022-07-22T04:32:12;18.00;99.90
63039;DHT22;49125;48.812;9.206;2022-07-22T04:34:37;18.10;99.90
63039;DHT22;49125;48.812;9.206;2022-07-22T04:37:03;18.10;99.90
63039;DHT22;49125;48.812;9.206;2022-07-22T04:39:29;18.20;99.90
63039;DHT22;49125;48.812;9.206;2022-07-22T04:41:55;18.20;99.90
63039;DHT22;49125;48.812;9.206;2022-07-22T04:44:20;18.20;99.90
63039;DHT22;49125;48.812;9.206;2022-07-22T04:46:46;18.20;99.90
63039;DHT22;49125;48.812;9.206;2022-07-22T04:49:11;18.30;99.90
63039;DHT22;49125;48.812;9.206;2022-07-22T04:51:37;18.30;99.90
63039;DHT22;49125;48.812;9.206;2022-07-22T04:54:03;18.30;99.90
63039;DHT22;49125;48.812;9.206;2022-07-22T04:56:28;18.40;99.90
63039;DHT22;49125;48.812;9.206;2022-07-22T04:58:54;18.50;99.90
63039;DHT22;49125;48.812;9.206;2022-07-22T05:01:19;18.50;99.90
63039;DHT22;49125;48.812;9.206;2022-07-22T05:03:45;18.60;99.90
63039;DHT22;49125;48.812;9.206;2022-07-22T05:06:10;18.70;99.90
63039;DHT22;49125;48.812;9.206;2022-07-22T05:08:36;18.70;99.80
63039;DHT22;49125;48.812;9.206;2022-07-22T05:11:01;18.90;99.80
63039;DHT22;49125;48.812;9.206;2022-07-22T05:13:27;18.90;99.60
63039;DHT22;49125;48.812;9.206;2022-07-22T05:15:53;19.00;99.50
63039;DHT22;49125;48.812;9.206;2022-07-22T05:18:18;19.10;99.70
63039;DHT22;49125;48.812;9.206;2022-07-22T05:20:44;19.10;99.50
63039;DHT22;49125;48.812;9.206;2022-07-22T05:23:09;19.20;99.10
63039;DHT22;49125;48.812;9.206;2022-07-22T05:25:36;19.20;99.40
63039;DHT22;49125;48.812;9.206;2022-07-22T05:28:02;19.30;99.50
63039;DHT22;49125;48.812;9.206;2022-07-22T05:30:27;19.40;99.20
63039;DHT22;49125;48.812;9.206;2022-07-22T05:32:53;19.40;99.10
63039;DHT22;49125;48.812;9.206;2022-07-22T05:35:19;19.50;98.90
63039;DHT22;49125;48.812;9.206;2022-07-22T05:37:45;19.60;98.80
63039;DHT22;49125;48.812;9.206;2022-07-22T05:40:11;19.70;98.80
63039;DHT22;49125;48.812;9.206;2022-07-22T05:42:37;19.80;98.70
63039;DHT22;49125;48.812;9.206;2022-07-22T05:45:03;20.00;98.60
63039;DHT22;49125;48.812;9.206;2022-07-22T05:47:29;20.20;98.60
63039;DHT22;49125;48.812;9.206;2022-07-22T05:49:55;20.30;98.20
63039;DHT22;49125;48.812;9.206;2022-07-22T05:52:20;20.40;97.80
63039;DHT22;49125;48.812;9.206;2022-07-22T05:54:46;20.50;97.60
63039;DHT22;49125;48.812;9.206;2022-07-22T05:57:11;20.70;98.20
63039;DHT22;49125;48.812;9.206;2022-07-22T05:59:37;20.70;96.90
63039;DHT22;49125;48.812;9.206;2022-07-22T06:02:03;20.90;97.20
63039;DHT22;49125;48.812;9.206;2022-07-22T06:04:29;21.10;97.30
63039;DHT22;49125;48.812;9.206;2022-07-22T06:06:55;21.20;96.80
63039;DHT22;49125;48.812;9.206;2022-07-22T06:09:20;21.30;96.80
63039;DHT22;49125;48.812;9.206;2022-07-22T06:11:46;21.40;96.30
63039;DHT22;49125;48.812;9.206;2022-07-22T06:14:12;21.60;96.40
63039;DHT22;49125;48.812;9.206;2022-07-22T06:16:37;21.90;96.40
63039;DHT22;49125;48.812;9.206;2022-07-22T06:19:03;21.90;95.60
63039;DHT22;49125;48.812;9.206;2022-07-22T06:21:29;22.10;95.80
63039;DHT22;49125;48.812;9.206;2022-07-22T06:23:54;22.10;95.40
63039;DHT22;49125;48.812;9.206;2022-07-22T06:26:21;22.20;94.60
63039;DHT22;49125;48.812;9.206;2022-07-22T06:28:46;22.40;95.00
63039;DHT22;49125;48.812;9.206;2022-07-22T06:31:12;22.50;94.70
63039;DHT22;49125;48.812;9.206;2022-07-22T06:33:37;22.60;94.40
63039;DHT22;49125;48.812;9.206;2022-07-22T06:36:03;22.70;93.80
63039;DHT22;49125;48.812;9.206;2022-07-22T06:38:29;22.80;93.90
63039;DHT22;49125;48.812;9.206;2022-07-22T06:40:55;22.90;93.90
63039;DHT22;49125;48.812;9.206;2022-07-22T06:43:21;23.10;92.80
63039;DHT22;49125;48.812;9.206;2022-07-22T06:45:47;23.20;93.20
63039;DHT22;49125;48.812;9.206;2022-07-22T06:48:13;23.40;93.60
63039;DHT22;49125;48.812;9.206;2022-07-22T06:50:38;23.60;93.00
63039;DHT22;49125;48.812;9.206;2022-07-22T06:53:04;23.90;93.00
63039;DHT22;49125;48.812;9.206;2022-07-22T06:55:30;23.90;91.20
63039;DHT22;49125;48.812;9.206;2022-07-22T06:57:56;23.90;91.40
63039;DHT22;49125;48.812;9.206;2022-07-22T07:00:21;24.00;92.50
63039;DHT22;49125;48.812;9.206;2022-07-22T07:02:47;24.20;91.80
63039;DHT22;49125;48.812;9.206;2022-07-22T07:05:12;24.30;91.40
63039;DHT22;49125;48.812;9.206;2022-07-22T07:07:38;24.50;90.80
63039;DHT22;49125;48.812;9.206;2022-07-22T07:10:04;24.50;89.70
63039;DHT22;49125;48.812;9.206;2022-07-22T07:12:29;24.60;90.10
63039;DHT22;49125;48.812;9.206;2022-07-22T07:14:55;24.80;90.00
63039;DHT22;49125;48.812;9.206;2022-07-22T07:17:21;24.90;88.30
63039;DHT22;49125;48.812;9.206;2022-07-22T07:19:46;25.10;89.20
63039;DHT22;49125;48.812;9.206;2022-07-22T07:22:12;25.30;89.30
63039;DHT22;49125;48.812;9.206;2022-07-22T07:24:37;25.40;88.30
63039;DHT22;49125;48.812;9.206;2022-07-22T07:27:03;25.50;86.20
63039;DHT22;49125;48.812;9.206;2022-07-22T07:29:28;25.60;86.90
63039;DHT22;49125;48.812;9.206;2022-07-22T07:31:54;25.60;84.70
63039;DHT22;49125;48.812;9.206;2022-07-22T07:34:19;25.50;86.60
63039;DHT22;49125;48.812;9.206;2022-07-22T07:36:45;25.60;87.10
63039;DHT22;49125;48.812;9.206;2022-07-22T07:39:10;25.80;84.30
63039;DHT22;49125;48.812;9.206;2022-07-22T07:41:36;25.90;85.10
63039;DHT22;49125;48.812;9.206;2022-07-22T07:44:02;26.10;85.30
63039;DHT22;49125;48.812;9.206;2022-07-22T07:46:27;26.10;83.60
63039;DHT22;49125;48.812;9.206;2022-07-22T07:48:53;26.20;81.90
63039;DHT22;49125;48.812;9.206;2022-07-22T07:51:19;26.40;83.50
63039;DHT22;49125;48.812;9.206;2022-07-22T07:53:45;26.70;84.30
63039;DHT22;49125;48.812;9.206;2022-07-22T07:56:11;27.00;80.90
63039;DHT22;49125;48.812;9.206;2022-07-22T07:58:36;27.00;78.60
63039;DHT22;49125;48.812;9.206;2022-07-22T08:01:02;27.10;79.10
63039;DHT22;49125;48.812;9.206;2022-07-22T08:03:31;27.30;80.70
63039;DHT22;49125;48.812;9.206;2022-07-22T08:05:57;27.40;77.90
63039;DHT22;49125;48.812;9.206;2022-07-22T08:08:25;27.50;77.70
63039;DHT22;49125;48.812;9.206;2022-07-22T08:10:50;27.80;79.90
63039;DHT22;49125;48.812;9.206;2022-07-22T08:13:16;28.10;78.80
63039;DHT22;49125;48.812;9.206;2022-07-22T08:15:41;28.40;78.40
63039;DHT22;49125;48.812;9.206;2022-07-22T08:18:07;28.80;77.70
63039;DHT22;49125;48.812;9.206;2022-07-22T08:20:33;28.90;76.80
63039;DHT22;49125;48.812;9.206;2022-07-22T08:22:59;28.90;72.20
63039;DHT22;49125;48.812;9.206;2022-07-22T08:25:24;28.70;72.60
63039;DHT22;49125;48.812;9.206;2022-07-22T08:27:51;28.70;73.80
63039;DHT22;49125;48.812;9.206;2022-07-22T08:30:18;28.80;73.10
63039;DHT22;49125;48.812;9.206;2022-07-22T08:32:44;28.90;72.10
63039;DHT22;49125;48.812;9.206;2022-07-22T08:35:09;28.80;71.00
63039;DHT22;49125;48.812;9.206;2022-07-22T08:37:35;28.70;70.30
63039;DHT22;49125;48.812;9.206;2022-07-22T08:40:01;28.80;69.40
63039;DHT22;49125;48.812;9.206;2022-07-22T08:42:27;28.80;71.00
63039;DHT22;49125;48.812;9.206;2022-07-22T08:44:54;29.10;70.20
63039;DHT22;49125;48.812;9.206;2022-07-22T08:47:23;29.40;70.40
63039;DHT22;49125;48.812;9.206;2022-07-22T08:49:49;29.70;71.40
63039;DHT22;49125;48.812;9.206;2022-07-22T08:52:15;29.80;69.40
63039;DHT22;49125;48.812;9.206;2022-07-22T08:54:41;30.00;69.40
63039;DHT22;49125;48.812;9.206;2022-07-22T08:57:07;30.20;68.00
63039;DHT22;49125;48.812;9.206;2022-07-22T08:59:32;30.30;68.00
63039;DHT22;49125;48.812;9.206;2022-07-22T09:02:09;30.40;66.10
63039;DHT22;49125;48.812;9.206;2022-07-22T09:05:04;30.20;67.00
63039;DHT22;49125;48.812;9.206;2022-07-22T09:07:37;30.40;64.80
63039;DHT22;49125;48.812;9.206;2022-07-22T09:10:08;30.50;67.40
63039;DHT22;49125;48.812;9.206;2022-07-22T09:13:00;30.70;68.50
63039;DHT22;49125;48.812;9.206;2022-07-22T09:15:29;30.90;65.90
63039;DHT22;49125;48.812;9.206;2022-07-22T09:17:55;31.10;63.30
63039;DHT22;49125;48.812;9.206;2022-07-22T09:20:20;31.20;63.00
63039;DHT22;49125;48.812;9.206;2022-07-22T09:22:48;31.10;61.50
63039;DHT22;49125;48.812;9.206;2022-07-22T09:28:21;31.40;62.10
63039;DHT22;49125;48.812;9.206;2022-07-22T09:30:54;31.50;63.60
63039;DHT22;49125;48.812;9.206;2022-07-22T09:33:21;31.60;61.90
63039;DHT22;49125;48.812;9.206;2022-07-22T09:35:48;31.50;62.10
63039;DHT22;49125;48.812;9.206;2022-07-22T09:38:15;31.50;62.10
63039;DHT22;49125;48.812;9.206;2022-07-22T09:40:43;31.60;59.10
63039;DHT22;49125;48.812;9.206;2022-07-22T09:43:17;31.20;57.80
63039;DHT22;49125;48.812;9.206;2022-07-22T09:45:45;31.20;59.70
63039;DHT22;49125;48.812;9.206;2022-07-22T09:48:12;31.50;57.70
63039;DHT22;49125;48.812;9.206;2022-07-22T09:50:38;31.70;59.40
63039;DHT22;49125;48.812;9.206;2022-07-22T09:53:04;32.00;57.10
63039;DHT22;49125;48.812;9.206;2022-07-22T09:55:30;32.20;58.40
63039;DHT22;49125;48.812;9.206;2022-07-22T09:57:57;32.30;55.80
63039;DHT22;49125;48.812;9.206;2022-07-22T10:00:25;32.40;57.90
63039;DHT22;49125;48.812;9.206;2022-07-22T10:05:19;32.80;58.40
63039;DHT22;49125;48.812;9.206;2022-07-22T10:07:46;33.10;55.40
63039;DHT22;49125;48.812;9.206;2022-07-22T10:10:15;33.20;57.80
63039;DHT22;49125;48.812;9.206;2022-07-22T10:12:42;33.40;55.00
63039;DHT22;49125;48.812;9.206;2022-07-22T10:15:09;33.50;54.20
63039;DHT22;49125;48.812;9.206;2022-07-22T10:17:43;33.50;54.80
63039;DHT22;49125;48.812;9.206;2022-07-22T10:20:10;33.60;54.10
63039;DHT22;49125;48.812;9.206;2022-07-22T10:25:06;34.00;55.80
63039;DHT22;49125;48.812;9.206;2022-07-22T10:27:54;34.20;53.60
63039;DHT22;49125;48.812;9.206;2022-07-22T10:30:37;34.30;53.50
63039;DHT22;49125;48.812;9.206;2022-07-22T10:33:18;33.90;50.70
63039;DHT22;49125;48.812;9.206;2022-07-22T10:38:13;33.50;53.40
63039;DHT22;49125;48.812;9.206;2022-07-22T10:40:49;33.90;54.00
63039;DHT22;49125;48.812;9.206;2022-07-22T10:43:25;34.30;51.90
63039;DHT22;49125;48.812;9.206;2022-07-22T10:45:54;34.60;53.30
63039;DHT22;49125;48.812;9.206;2022-07-22T10:56:29;35.00;50.30
63039;DHT22;49125;48.812;9.206;2022-07-22T10:59:12;35.00;48.20
63039;DHT22;49125;48.812;9.206;2022-07-22T11:01:43;34.40;48.90
63039;DHT22;49125;48.812;9.206;2022-07-22T11:06:40;35.30;48.80
63039;DHT22;49125;48.812;9.206;2022-07-22T11:09:09;35.70;52.00
63039;DHT22;49125;48.812;9.206;2022-07-22T11:14:29;36.50;46.30
63039;DHT22;49125;48.812;9.206;2022-07-22T11:17:09;36.10;47.80
63039;DHT22;49125;48.812;9.206;2022-07-22T11:19:36;36.30;47.30
63039;DHT22;49125;48.812;9.206;2022-07-22T11:22:13;36.60;47.70
63039;DHT22;49125;48.812;9.206;2022-07-22T11:24:41;37.00;47.80
63039;DHT22;49125;48.812;9.206;2022-07-22T11:27:18;37.30;47.60
63039;DHT22;49125;48.812;9.206;2022-07-22T11:29:48;37.70;45.80
63039;DHT22;49125;48.812;9.206;2022-07-22T11:32:15;38.20;44.10
63039;DHT22;49125;48.812;9.206;2022-07-22T11:34:44;38.30;43.40
63039;DHT22;49125;48.812;9.206;2022-07-22T11:37:18;38.40;42.40
63039;DHT22;49125;48.812;9.206;2022-07-22T11:39:44;38.50;42.60
63039;DHT22;49125;48.812;9.206;2022-07-22T11:42:10;39.10;41.50
63039;DHT22;49125;48.812;9.206;2022-07-22T11:44:37;39.10;41.90
63039;DHT22;49125;48.812;9.206;2022-07-22T11:47:07;39.30;39.90
63039;DHT22;49125;48.812;9.206;2022-07-22T11:49:35;39.50;39.30
63039;DHT22;49125;48.812;9.206;2022-07-22T11:52:03;39.50;39.30
63039;DHT22;49125;48.812;9.206;2022-07-22T11:54:28;39.70;40.90
63039;DHT22;49125;48.812;9.206;2022-07-22T11:56:54;40.00;41.80
63039;DHT22;49125;48.812;9.206;2022-07-22T11:59:20;40.20;37.60
63039;DHT22;49125;48.812;9.206;2022-07-22T12:01:47;40.30;39.40
63039;DHT22;49125;48.812;9.206;2022-07-22T12:04:17;40.40;39.40
63039;DHT22;49125;48.812;9.206;2022-07-22T12:06:43;40.10;37.40
63039;DHT22;49125;48.812;9.206;2022-07-22T12:11:48;40.20;39.60
63039;DHT22;49125;48.812;9.206;2022-07-22T12:14:19;40.70;38.10
63039;DHT22;49125;48.812;9.206;2022-07-22T12:17:08;41.00;38.90
63039;DHT22;49125;48.812;9.206;2022-07-22T12:19:36;41.20;39.80
63039;DHT22;49125;48.812;9.206;2022-07-22T12:22:03;41.60;38.90
63039;DHT22;49125;48.812;9.206;2022-07-22T12:24:39;41.60;36.10
63039;DHT22;49125;48.812;9.206;2022-07-22T12:27:07;41.50;36.10
63039;DHT22;49125;48.812;9.206;2022-07-22T12:32:04;42.10;33.80
63039;DHT22;49125;48.812;9.206;2022-07-22T12:34:32;42.20;33.90
63039;DHT22;49125;48.812;9.206;2022-07-22T12:37:00;42.50;35.60
63039;DHT22;49125;48.812;9.206;2022-07-22T12:39:27;42.90;35.20
63039;DHT22;49125;48.812;9.206;2022-07-22T12:41:54;43.30;35.40
63039;DHT22;49125;48.812;9.206;2022-07-22T12:44:23;43.40;35.10
63039;DHT22;49125;48.812;9.206;2022-07-22T12:46:55;43.70;34.70
63039;DHT22;49125;48.812;9.206;2022-07-22T12:49:23;43.70;32.70
63039;DHT22;49125;48.812;9.206;2022-07-22T12:52:12;43.80;31.90
63039;DHT22;49125;48.812;9.206;2022-07-22T12:54:40;44.10;32.10
63039;DHT22;49125;48.812;9.206;2022-07-22T12:57:07;44.10;32.90
63039;DHT22;49125;48.812;9.206;2022-07-22T12:59:34;44.30;32.40
63039;DHT22;49125;48.812;9.206;2022-07-22T13:02:00;44.60;35.30
63039;DHT22;49125;48.812;9.206;2022-07-22T13:04:25;44.50;31.30
63039;DHT22;49125;48.812;9.206;2022-07-22T13:06:51;43.50;32.40
63039;DHT22;49125;48.812;9.206;2022-07-22T13:09:20;43.80;33.40
63039;DHT22;49125;48.812;9.206;2022-07-22T13:11:45;44.50;33.50
63039;DHT22;49125;48.812;9.206;2022-07-22T13:14:12;44.90;31.50
63039;DHT22;49125;48.812;9.206;2022-07-22T13:16:38;44.70;31.10
63039;DHT22;49125;48.812;9.206;2022-07-22T13:19:04;44.70;30.00
63039;DHT22;49125;48.812;9.206;2022-07-22T13:21:29;43.70;31.00
63039;DHT22;49125;48.812;9.206;2022-07-22T13:23:55;43.70;32.00
63039;DHT22;49125;48.812;9.206;2022-07-22T13:26:20;44.10;31.80
63039;DHT22;49125;48.812;9.206;2022-07-22T13:28:46;44.50;32.00
63039;DHT22;49125;48.812;9.206;2022-07-22T13:31:12;45.10;31.60
63039;DHT22;49125;48.812;9.206;2022-07-22T13:33:38;45.40;29.10
63039;DHT22;49125;48.812;9.206;2022-07-22T13:36:03;45.50;28.30
63039;DHT22;49125;48.812;9.206;2022-07-22T13:38:30;44.90;31.00
63039;DHT22;49125;48.812;9.206;2022-07-22T13:40:55;45.40;30.70
63039;DHT22;49125;48.812;9.206;2022-07-22T13:43:23;45.90;28.90
63039;DHT22;49125;48.812;9.206;2022-07-22T13:45:49;45.80;30.10
63039;DHT22;49125;48.812;9.206;2022-07-22T13:48:15;45.30;30.20
63039;DHT22;49125;48.812;9.206;2022-07-22T13:50:42;45.20;31.50
63039;DHT22;49125;48.812;9.206;2022-07-22T13:53:08;44.70;30.00
63039;DHT22;49125;48.812;9.206;2022-07-22T13:55:33;44.90;31.40
63039;DHT22;49125;48.812;9.206;2022-07-22T13:57:59;44.70;29.60
63039;DHT22;49125;48.812;9.206;2022-07-22T14:00:27;44.60;29.20
63039;DHT22;49125;48.812;9.206;2022-07-22T14:02:53;44.30;29.60
63039;DHT22;49125;48.812;9.206;2022-07-22T14:05:18;44.40;30.90
63039;DHT22;49125;48.812;9.206;2022-07-22T14:07:44;44.00;30.10
63039;DHT22;49125;48.812;9.206;2022-07-22T14:10:10;44.40;30.10
63039;DHT22;49125;48.812;9.206;2022-07-22T14:12:36;44.70;31.10
63039;DHT22;49125;48.812;9.206;2022-07-22T14:15:02;45.10;30.70
63039;DHT22;49125;48.812;9.206;2022-07-22T14:17:31;45.40;30.10
63039;DHT22;49125;48.812;9.206;2022-07-22T14:19:56;45.60;29.30
63039;DHT22;49125;48.812;9.206;2022-07-22T14:22:22;45.40;29.80
63039;DHT22;49125;48.812;9.206;2022-07-22T14:24:47;45.70;29.80
63039;DHT22;49125;48.812;9.206;2022-07-22T14:27:13;45.90;29.00
63039;DHT22;49125;48.812;9.206;2022-07-22T14:29:39;46.10;29.10
63039;DHT22;49125;48.812;9.206;2022-07-22T14:32:05;45.70;28.30
63039;DHT22;49125;48.812;9.206;2022-07-22T14:34:30;45.50;28.90
63039;DHT22;49125;48.812;9.206;2022-07-22T14:36:56;45.30;29.00
63039;DHT22;49125;48.812;9.206;2022-07-22T14:39:21;45.70;28.80
63039;DHT22;49125;48.812;9.206;2022-07-22T14:41:47;45.80;29.20
63039;DHT22;49125;48.812;9.206;2022-07-22T14:44:13;45.70;28.90
63039;DHT22;49125;48.812;9.206;2022-07-22T14:46:39;45.50;28.20
63039;DHT22;49125;48.812;9.206;2022-07-22T14:49:04;45.40;28.60
63039;DHT22;49125;48.812;9.206;2022-07-22T14:51:30;45.20;29.00
63039;DHT22;49125;48.812;9.206;2022-07-22T14:53:55;44.80;29.10
63039;DHT22;49125;48.812;9.206;2022-07-22T14:56:21;44.80;29.30
63039;DHT22;49125;48.812;9.206;2022-07-22T14:58:47;45.00;28.80
63039;DHT22;49125;48.812;9.206;2022-07-22T15:01:12;44.60;26.90
63039;DHT22;49125;48.812;9.206;2022-07-22T15:03:38;44.20;27.80
63039;DHT22;49125;48.812;9.206;2022-07-22T15:06:04;44.50;28.30
63039;DHT22;49125;48.812;9.206;2022-07-22T15:08:29;44.80;28.20
63039;DHT22;49125;48.812;9.206;2022-07-22T15:10:55;45.30;28.20
63039;DHT22;49125;48.812;9.206;2022-07-22T15:13:20;45.20;27.10
63039;DHT22;49125;48.812;9.206;2022-07-22T15:15:46;44.90;27.00
63039;DHT22;49125;48.812;9.206;2022-07-22T15:18:12;45.00;28.10
63039;DHT22;49125;48.812;9.206;2022-07-22T15:20:40;45.20;28.90
63039;DHT22;49125;48.812;9.206;2022-07-22T15:23:05;44.20;26.90
63039;DHT22;49125;48.812;9.206;2022-07-22T15:25:31;43.80;27.10
63039;DHT22;49125;48.812;9.206;2022-07-22T15:27:57;43.70;27.50
63039;DHT22;49125;48.812;9.206;2022-07-22T15:30:25;43.70;28.70
63039;DHT22;49125;48.812;9.206;2022-07-22T15:32:50;43.50;28.80
63039;DHT22;49125;48.812;9.206;2022-07-22T15:35:16;42.90;28.90
63039;DHT22;49125;48.812;9.206;2022-07-22T15:37:41;42.70;28.80
63039;DHT22;49125;48.812;9.206;2022-07-22T15:40:08;42.30;29.40
63039;DHT22;49125;48.812;9.206;2022-07-22T15:42:35;42.70;29.40
63039;DHT22;49125;48.812;9.206;2022-07-22T15:45:01;42.60;29.10
63039;DHT22;49125;48.812;9.206;2022-07-22T15:47:27;42.30;29.30
63039;DHT22;49125;48.812;9.206;2022-07-22T15:49:53;42.40;29.90
63039;DHT22;49125;48.812;9.206;2022-07-22T15:52:18;42.40;29.30
63039;DHT22;49125;48.812;9.206;2022-07-22T15:54:44;42.30;29.60
63039;DHT22;49125;48.812;9.206;2022-07-22T15:57:09;42.30;30.70